VOGO Airport Information

Runway Information
Airport Frequencies
Airport Navaids
Airport Weather Information & NOTAM
ADDS - METARS form results

(2139 UTC 05 October 2022)
Data provider http://aviationweather.gov/metar/data/
 
Forecast for: VOGO (GOA , IN)
Text: TAF VOGO 052000Z 0521/0606 32010KT 6000 FEW015 SCT020 SCT090
Forecast period: 2100 UTC 05 October 2022 to 0600 UTC 06 October 2022
Forecast type: FROM: standard forecast or significant change
Winds: from the NW (320 degrees) at 12 MPH (10 knots; 5.1 m/s)
Visibility: 4 miles (6 km)
Ceiling: at least 12,000 feet AGL
Clouds: few clouds at 1500 feet AGL
scattered clouds at 2000 feet AGL
scattered clouds at 9000 feet AGL
Weather: no significant weather forecast for this period
Text: TEMPO 0521/0522 4000 RA DZ
Forecast period: 2100 to 2200 UTC 05 October 2022
Forecast type: TEMPORARY: The following changes expected for less than half the time period
Visibility: 2.49 miles (4.01 km)
Ceiling: unknown
Clouds: missing
Weather: RA DZ  (moderate rain, moderate drizzle)
Text: TEMPO 0600/0604 VRB02KT 3000 DZ BR
Forecast period: 0000 to 0400 UTC 06 October 2022
Forecast type: TEMPORARY: The following changes expected for less than half the time period
Winds: variable direction winds at 2 MPH (2 knots; 1.0 m/s)
Visibility: 1.86 miles (2.99 km)
Ceiling: unknown
Clouds: missing
Weather: DZ BR  (moderate drizzle, mist)